sensor_id;sensor_type;location;lat;lon;timestamp;pressure;altitude;pressure_sealevel;temperature;humidity
75913;BME280;64592;52.168;21.040;2023-08-06T00:01:39;99240.06;;;19.38;100.00
75913;BME280;64592;52.168;21.040;2023-08-06T00:06:41;99240.91;;;19.38;100.00
75913;BME280;64592;52.168;21.040;2023-08-06T00:11:44;99222.44;;;19.41;100.00
75913;BME280;64592;52.168;21.040;2023-08-06T00:16:47;99232.28;;;19.42;100.00
75913;BME280;64592;52.168;21.040;2023-08-06T00:21:48;99256.72;;;19.43;100.00
75913;BME280;64592;52.168;21.040;2023-08-06T00:26:51;99246.63;;;19.44;100.00
75913;BME280;64592;52.168;21.040;2023-08-06T00:31:53;99246.44;;;19.45;100.00
75913;BME280;64592;52.168;21.040;2023-08-06T00:36:55;99216.19;;;19.47;100.00
75913;BME280;64592;52.168;21.040;2023-08-06T00:41:58;99218.25;;;19.45;100.00
75913;BME280;64592;52.168;21.040;2023-08-06T00:47:00;99211.28;;;19.42;100.00
75913;BME280;64592;52.168;21.040;2023-08-06T00:52:03;99188.38;;;19.43;100.00
75913;BME280;64592;52.168;21.040;2023-08-06T00:57:07;99173.84;;;19.43;100.00
75913;BME280;64592;52.168;21.040;2023-08-06T01:02:09;99162.28;;;19.41;100.00
75913;BME280;64592;52.168;21.040;2023-08-06T01:07:18;99160.59;;;19.39;100.00
75913;BME280;64592;52.168;21.040;2023-08-06T01:12:33;99137.44;;;19.35;100.00
75913;BME280;64592;52.168;21.040;2023-08-06T01:17:37;99119.31;;;19.28;100.00
75913;BME280;64592;52.168;21.040;2023-08-06T01:22:41;99096.38;;;19.22;100.00
75913;BME280;64592;52.168;21.040;2023-08-06T01:27:46;99057.91;;;19.17;100.00
75913;BME280;64592;52.168;21.040;2023-08-06T01:32:50;99027.19;;;19.15;100.00
75913;BME280;64592;52.168;21.040;2023-08-06T01:37:56;99012.22;;;19.05;100.00
75913;BME280;64592;52.168;21.040;2023-08-06T01:42:58;98997.72;;;19.04;100.00
75913;BME280;64592;52.168;21.040;2023-08-06T01:47:59;98993.94;;;19.05;100.00
75913;BME280;64592;52.168;21.040;2023-08-06T01:53:02;98989.94;;;19.01;100.00
75913;BME280;64592;52.168;21.040;2023-08-06T01:58:04;98988.63;;;18.97;100.00
75913;BME280;64592;52.168;21.040;2023-08-06T02:03:05;98988.88;;;18.95;100.00
75913;BME280;64592;52.168;21.040;2023-08-06T02:08:08;98981.94;;;18.99;100.00
75913;BME280;64592;52.168;21.040;2023-08-06T02:13:10;98973.31;;;18.96;100.00
75913;BME280;64592;52.168;21.040;2023-08-06T02:18:11;98956.94;;;18.96;100.00
75913;BME280;64592;52.168;21.040;2023-08-06T02:23:14;98958.16;;;18.93;100.00
75913;BME280;64592;52.168;21.040;2023-08-06T02:28:16;98948.75;;;18.96;100.00
75913;BME280;64592;52.168;21.040;2023-08-06T02:33:18;98951.88;;;18.99;100.00
75913;BME280;64592;52.168;21.040;2023-08-06T02:38:21;98943.50;;;19.01;100.00
75913;BME280;64592;52.168;21.040;2023-08-06T02:43:22;98942.44;;;19.02;100.00
75913;BME280;64592;52.168;21.040;2023-08-06T02:48:24;98952.09;;;19.05;100.00
75913;BME280;64592;52.168;21.040;2023-08-06T02:53:27;98935.50;;;19.06;100.00
75913;BME280;64592;52.168;21.040;2023-08-06T02:58:29;98931.34;;;19.10;100.00
75913;BME280;64592;52.168;21.040;2023-08-06T03:03:30;98914.75;;;19.12;100.00
75913;BME280;64592;52.168;21.040;2023-08-06T03:08:34;98901.28;;;19.10;100.00
75913;BME280;64592;52.168;21.040;2023-08-06T03:13:35;98885.94;;;19.09;100.00
75913;BME280;64592;52.168;21.040;2023-08-06T03:18:37;98870.59;;;19.08;100.00
75913;BME280;64592;52.168;21.040;2023-08-06T03:23:40;98865.56;;;19.12;100.00
75913;BME280;64592;52.168;21.040;2023-08-06T03:28:42;98864.09;;;19.16;100.00
75913;BME280;64592;52.168;21.040;2023-08-06T03:33:44;98849.78;;;19.14;100.00
75913;BME280;64592;52.168;21.040;2023-08-06T03:38:47;98833.00;;;19.17;100.00
75913;BME280;64592;52.168;21.040;2023-08-06T03:43:49;98829.84;;;19.20;100.00
75913;BME280;64592;52.168;21.040;2023-08-06T03:48:50;98815.75;;;19.23;100.00
75913;BME280;64592;52.168;21.040;2023-08-06T03:53:53;98804.00;;;19.22;100.00
75913;BME280;64592;52.168;21.040;2023-08-06T03:58:55;98796.22;;;19.26;100.00
75913;BME280;64592;52.168;21.040;2023-08-06T04:03:57;98783.41;;;19.26;100.00
75913;BME280;64592;52.168;21.040;2023-08-06T04:08:59;98776.66;;;19.29;100.00
75913;BME280;64592;52.168;21.040;2023-08-06T04:14:01;98763.63;;;19.31;100.00
75913;BME280;64592;52.168;21.040;2023-08-06T04:19:03;98755.22;;;19.32;100.00
75913;BME280;64592;52.168;21.040;2023-08-06T04:24:06;98751.00;;;19.36;100.00
75913;BME280;64592;52.168;21.040;2023-08-06T04:29:08;98751.00;;;19.43;100.00
75913;BME280;64592;52.168;21.040;2023-08-06T04:34:09;98739.50;;;19.48;100.00
75913;BME280;64592;52.168;21.040;2023-08-06T04:39:13;98728.75;;;19.53;100.00
75913;BME280;64592;52.168;21.040;2023-08-06T04:44:14;98725.59;;;19.56;100.00
75913;BME280;64592;52.168;21.040;2023-08-06T04:49:16;98722.00;;;19.62;100.00
75913;BME280;64592;52.168;21.040;2023-08-06T04:54:19;98723.88;;;19.68;100.00
75913;BME280;64592;52.168;21.040;2023-08-06T04:59:21;98716.91;;;19.72;100.00
75913;BME280;64592;52.168;21.040;2023-08-06T05:04:23;98707.25;;;19.76;100.00
75913;BME280;64592;52.168;21.040;2023-08-06T05:09:26;98690.81;;;19.83;100.00
75913;BME280;64592;52.168;21.040;2023-08-06T05:14:28;98689.09;;;19.88;100.00
75913;BME280;64592;52.168;21.040;2023-08-06T05:19:29;98684.63;;;19.94;100.00
75913;BME280;64592;52.168;21.040;2023-08-06T05:24:32;98669.28;;;19.99;100.00
75913;BME280;64592;52.168;21.040;2023-08-06T05:29:35;98672.81;;;20.06;100.00
75913;BME280;64592;52.168;21.040;2023-08-06T05:34:36;98665.63;;;20.12;100.00
75913;BME280;64592;52.168;21.040;2023-08-06T05:39:39;98651.47;;;20.22;100.00
75913;BME280;64592;52.168;21.040;2023-08-06T05:44:41;98644.28;;;20.34;100.00
75913;BME280;64592;52.168;21.040;2023-08-06T05:49:43;98635.38;;;20.45;100.00
75913;BME280;64592;52.168;21.040;2023-08-06T05:54:46;98629.16;;;20.56;100.00
75913;BME280;64592;52.168;21.040;2023-08-06T05:59:48;98637.72;;;20.66;100.00
75913;BME280;64592;52.168;21.040;2023-08-06T06:04:49;98630.47;;;20.78;100.00
75913;BME280;64592;52.168;21.040;2023-08-06T06:09:52;98633.28;;;20.90;100.00
75913;BME280;64592;52.168;21.040;2023-08-06T06:14:54;98625.63;;;20.99;100.00
75913;BME280;64592;52.168;21.040;2023-08-06T06:19:55;98609.53;;;21.09;100.00
75913;BME280;64592;52.168;21.040;2023-08-06T06:24:59;98613.03;;;21.16;100.00
75913;BME280;64592;52.168;21.040;2023-08-06T06:30:00;98607.91;;;21.26;100.00
75913;BME280;64592;52.168;21.040;2023-08-06T06:35:02;98601.44;;;21.39;100.00
75913;BME280;64592;52.168;21.040;2023-08-06T06:40:07;98592.81;;;21.53;100.00
75913;BME280;64592;52.168;21.040;2023-08-06T06:45:09;98593.72;;;21.65;98.93
75913;BME280;64592;52.168;21.040;2023-08-06T06:50:11;98585.78;;;21.76;98.27
75913;BME280;64592;52.168;21.040;2023-08-06T06:55:14;98580.59;;;21.86;98.40
75913;BME280;64592;52.168;21.040;2023-08-06T07:00:16;98587.22;;;21.96;96.41
75913;BME280;64592;52.168;21.040;2023-08-06T07:05:18;98587.97;;;22.03;96.37
75913;BME280;64592;52.168;21.040;2023-08-06T07:10:21;98588.25;;;22.14;96.24
75913;BME280;64592;52.168;21.040;2023-08-06T07:15:22;98587.31;;;22.20;94.85
75913;BME280;64592;52.168;21.040;2023-08-06T07:20:24;98582.34;;;22.28;95.33
75913;BME280;64592;52.168;21.040;2023-08-06T07:25:27;98592.66;;;22.44;95.70
75913;BME280;64592;52.168;21.040;2023-08-06T07:30:29;98585.03;;;22.58;93.52
75913;BME280;64592;52.168;21.040;2023-08-06T07:35:31;98586.28;;;22.74;92.43
75913;BME280;64592;52.168;21.040;2023-08-06T07:40:35;98576.34;;;22.84;91.87
75913;BME280;64592;52.168;21.040;2023-08-06T07:45:37;98585.19;;;22.98;92.12
75913;BME280;64592;52.168;21.040;2023-08-06T07:50:39;98578.13;;;23.14;91.17
75913;BME280;64592;52.168;21.040;2023-08-06T07:55:42;98581.38;;;23.34;88.54
75913;BME280;64592;52.168;21.040;2023-08-06T08:00:43;98564.97;;;23.51;88.69
75913;BME280;64592;52.168;21.040;2023-08-06T08:05:45;98563.03;;;23.63;88.74
75913;BME280;64592;52.168;21.040;2023-08-06T08:10:49;98555.09;;;23.78;86.39
75913;BME280;64592;52.168;21.040;2023-08-06T08:15:56;98542.56;;;23.87;86.59
75913;BME280;64592;52.168;21.040;2023-08-06T08:20:58;98551.88;;;23.98;86.41
75913;BME280;64592;52.168;21.040;2023-08-06T08:26:01;98553.47;;;24.11;86.57
75913;BME280;64592;52.168;21.040;2023-08-06T08:31:08;98542.69;;;24.21;84.39
75913;BME280;64592;52.168;21.040;2023-08-06T08:36:09;98536.38;;;24.37;86.02
75913;BME280;64592;52.168;21.040;2023-08-06T08:41:12;98535.19;;;24.50;83.13
75913;BME280;64592;52.168;21.040;2023-08-06T08:46:14;98531.84;;;24.64;83.44
75913;BME280;64592;52.168;21.040;2023-08-06T08:51:16;98523.31;;;24.83;81.79
75913;BME280;64592;52.168;21.040;2023-08-06T08:56:20;98516.47;;;25.02;81.94
75913;BME280;64592;52.168;21.040;2023-08-06T09:01:22;98519.44;;;25.17;79.69
75913;BME280;64592;52.168;21.040;2023-08-06T09:06:25;98512.41;;;25.26;79.30
75913;BME280;64592;52.168;21.040;2023-08-06T09:11:30;98503.66;;;25.34;79.01
75913;BME280;64592;52.168;21.040;2023-08-06T09:16:40;98502.94;;;25.44;76.83
75913;BME280;64592;52.168;21.040;2023-08-06T09:21:42;98497.03;;;25.57;77.40
75913;BME280;64592;52.168;21.040;2023-08-06T09:26:45;98480.69;;;25.72;75.46
75913;BME280;64592;52.168;21.040;2023-08-06T09:31:48;98493.13;;;25.75;75.15
75913;BME280;64592;52.168;21.040;2023-08-06T09:36:52;98489.28;;;25.76;75.07
75913;BME280;64592;52.168;21.040;2023-08-06T09:41:58;98477.00;;;25.88;75.23
75913;BME280;64592;52.168;21.040;2023-08-06T09:47:01;98479.06;;;26.03;73.19
75913;BME280;64592;52.168;21.040;2023-08-06T09:52:04;98479.16;;;26.13;74.17
75913;BME280;64592;52.168;21.040;2023-08-06T09:57:08;98470.47;;;26.26;73.88
75913;BME280;64592;52.168;21.040;2023-08-06T10:02:12;98470.59;;;26.42;70.81
75913;BME280;64592;52.168;21.040;2023-08-06T10:07:14;98448.28;;;26.53;71.90
75913;BME280;64592;52.168;21.040;2023-08-06T10:12:21;98454.75;;;26.69;69.03
75913;BME280;64592;52.168;21.040;2023-08-06T10:17:25;98442.09;;;26.78;67.13
75913;BME280;64592;52.168;21.040;2023-08-06T10:22:27;98433.03;;;26.88;66.45
75913;BME280;64592;52.168;21.040;2023-08-06T10:27:32;98442.28;;;27.03;66.60
75913;BME280;64592;52.168;21.040;2023-08-06T10:32:49;98417.44;;;27.24;65.22
75913;BME280;64592;52.168;21.040;2023-08-06T10:37:51;98418.59;;;27.33;64.94
75913;BME280;64592;52.168;21.040;2023-08-06T10:42:54;98418.03;;;27.31;64.62
75913;BME280;64592;52.168;21.040;2023-08-06T10:47:56;98408.31;;;27.28;63.90
75913;BME280;64592;52.168;21.040;2023-08-06T10:53:03;98400.31;;;27.27;64.24
75913;BME280;64592;52.168;21.040;2023-08-06T10:58:07;98384.81;;;27.31;63.76
75913;BME280;64592;52.168;21.040;2023-08-06T11:03:09;98387.88;;;27.39;63.98
75913;BME280;64592;52.168;21.040;2023-08-06T11:08:10;98374.31;;;27.38;62.72
75913;BME280;64592;52.168;21.040;2023-08-06T11:13:16;98384.03;;;27.51;62.67
75913;BME280;64592;52.168;21.040;2023-08-06T11:18:18;98361.94;;;27.56;62.58
75913;BME280;64592;52.168;21.040;2023-08-06T11:23:19;98346.94;;;27.52;62.55
75913;BME280;64592;52.168;21.040;2023-08-06T11:28:22;98354.66;;;27.44;60.50
75913;BME280;64592;52.168;21.040;2023-08-06T11:33:25;98331.41;;;27.51;61.30
75913;BME280;64592;52.168;21.040;2023-08-06T11:38:27;98335.34;;;27.55;59.97
75913;BME280;64592;52.168;21.040;2023-08-06T11:43:31;98321.22;;;27.56;60.69
75913;BME280;64592;52.168;21.040;2023-08-06T11:48:50;98317.34;;;27.83;60.44
75913;BME280;64592;52.168;21.040;2023-08-06T11:53:55;98322.06;;;28.07;57.14
75913;BME280;64592;52.168;21.040;2023-08-06T11:58:58;98307.31;;;28.32;55.76
75913;BME280;64592;52.168;21.040;2023-08-06T12:04:00;98305.34;;;28.53;54.20
75913;BME280;64592;52.168;21.040;2023-08-06T12:09:02;98315.00;;;28.61;54.57
75913;BME280;64592;52.168;21.040;2023-08-06T12:14:07;98308.41;;;28.51;54.60
75913;BME280;64592;52.168;21.040;2023-08-06T12:19:09;98300.66;;;28.38;55.45
75913;BME280;64592;52.168;21.040;2023-08-06T12:24:10;98310.66;;;28.24;56.51
75913;BME280;64592;52.168;21.040;2023-08-06T12:29:13;98302.63;;;28.02;56.09
75913;BME280;64592;52.168;21.040;2023-08-06T12:34:15;98310.72;;;27.84;55.88
75913;BME280;64592;52.168;21.040;2023-08-06T12:39:17;98308.47;;;27.65;57.18
75913;BME280;64592;52.168;21.040;2023-08-06T12:44:20;98296.81;;;27.48;58.00
75913;BME280;64592;52.168;21.040;2023-08-06T12:49:22;98298.47;;;27.34;58.42
75913;BME280;64592;52.168;21.040;2023-08-06T12:54:24;98307.28;;;27.21;59.50
75913;BME280;64592;52.168;21.040;2023-08-06T12:59:28;98327.19;;;27.13;59.85
75913;BME280;64592;52.168;21.040;2023-08-06T13:04:29;98323.00;;;27.00;61.25
75913;BME280;64592;52.168;21.040;2023-08-06T13:09:31;98327.97;;;26.93;64.09
75913;BME280;64592;52.168;21.040;2023-08-06T13:14:34;98313.84;;;26.89;63.50
75913;BME280;64592;52.168;21.040;2023-08-06T13:19:36;98324.44;;;27.18;63.32
75913;BME280;64592;52.168;21.040;2023-08-06T13:24:38;98312.38;;;27.54;61.24
75913;BME280;64592;52.168;21.040;2023-08-06T13:29:41;98313.44;;;27.94;59.90
75913;BME280;64592;52.168;21.040;2023-08-06T13:34:43;98317.56;;;28.42;59.10
75913;BME280;64592;52.168;21.040;2023-08-06T13:39:44;98288.91;;;28.82;58.41
75913;BME280;64592;52.168;21.040;2023-08-06T13:44:47;98294.56;;;29.06;57.76
75913;BME280;64592;52.168;21.040;2023-08-06T13:49:49;98301.63;;;28.88;57.47
75913;BME280;64592;52.168;21.040;2023-08-06T13:54:51;98298.94;;;28.57;57.17
75913;BME280;64592;52.168;21.040;2023-08-06T13:59:54;98302.59;;;28.43;57.22
75913;BME280;64592;52.168;21.040;2023-08-06T14:04:56;98311.69;;;28.53;56.63
75913;BME280;64592;52.168;21.040;2023-08-06T14:09:57;98323.22;;;28.96;56.15
75913;BME280;64592;52.168;21.040;2023-08-06T14:15:00;98337.19;;;29.30;53.58
75913;BME280;64592;52.168;21.040;2023-08-06T14:20:04;98341.84;;;29.45;52.52
75913;BME280;64592;52.168;21.040;2023-08-06T14:25:07;98361.66;;;29.23;52.72
75913;BME280;64592;52.168;21.040;2023-08-06T14:30:11;98350.88;;;29.16;54.00
75913;BME280;64592;52.168;21.040;2023-08-06T14:35:13;98356.63;;;29.35;52.99
75913;BME280;64592;52.168;21.040;2023-08-06T14:40:15;98363.44;;;29.58;51.36
75913;BME280;64592;52.168;21.040;2023-08-06T14:45:18;98381.91;;;29.78;51.32
75913;BME280;64592;52.168;21.040;2023-08-06T14:50:19;98383.94;;;29.67;49.54
75913;BME280;64592;52.168;21.040;2023-08-06T14:55:25;98372.94;;;29.47;50.79
75913;BME280;64592;52.168;21.040;2023-08-06T15:00:28;98380.16;;;29.48;53.22
75913;BME280;64592;52.168;21.040;2023-08-06T15:05:30;98388.72;;;28.92;56.44
75913;BME280;64592;52.168;21.040;2023-08-06T15:10:31;98397.09;;;28.67;57.20
75913;BME280;64592;52.168;21.040;2023-08-06T15:15:34;98405.75;;;28.35;58.86
75913;BME280;64592;52.168;21.040;2023-08-06T15:20:36;98407.44;;;28.31;58.64
75913;BME280;64592;52.168;21.040;2023-08-06T15:25:37;98414.88;;;28.10;59.57
75913;BME280;64592;52.168;21.040;2023-08-06T15:30:40;98404.31;;;27.61;60.15
75913;BME280;64592;52.168;21.040;2023-08-06T15:35:48;98409.13;;;27.19;61.32
75913;BME280;64592;52.168;21.040;2023-08-06T15:40:49;98424.13;;;26.81;62.99
75913;BME280;64592;52.168;21.040;2023-08-06T15:45:52;98420.47;;;26.70;64.32
75913;BME280;64592;52.168;21.040;2023-08-06T15:50:55;98409.31;;;26.55;64.10
75913;BME280;64592;52.168;21.040;2023-08-06T15:55:57;98416.97;;;26.38;63.11
75913;BME280;64592;52.168;21.040;2023-08-06T16:01:00;98411.09;;;26.29;62.93
75913;BME280;64592;52.168;21.040;2023-08-06T16:06:02;98427.88;;;26.22;63.53
75913;BME280;64592;52.168;21.040;2023-08-06T16:11:04;98428.00;;;26.06;63.37
75913;BME280;64592;52.168;21.040;2023-08-06T16:16:08;98454.13;;;25.93;63.79
75913;BME280;64592;52.168;21.040;2023-08-06T16:21:10;98448.66;;;25.71;64.22
75913;BME280;64592;52.168;21.040;2023-08-06T16:26:12;98441.53;;;25.53;64.86
75913;BME280;64592;52.168;21.040;2023-08-06T16:31:15;98428.69;;;25.42;65.75
75913;BME280;64592;52.168;21.040;2023-08-06T16:36:16;98420.06;;;25.34;66.46
75913;BME280;64592;52.168;21.040;2023-08-06T16:41:18;98438.75;;;25.27;66.77
75913;BME280;64592;52.168;21.040;2023-08-06T16:46:21;98426.78;;;25.21;67.34
75913;BME280;64592;52.168;21.040;2023-08-06T16:51:24;98418.97;;;25.13;67.19
75913;BME280;64592;52.168;21.040;2023-08-06T16:56:27;98421.94;;;25.06;67.40
75913;BME280;64592;52.168;21.040;2023-08-06T17:01:30;98433.09;;;24.95;67.83
75913;BME280;64592;52.168;21.040;2023-08-06T17:06:32;98435.69;;;24.85;68.00
75913;BME280;64592;52.168;21.040;2023-08-06T17:11:33;98438.03;;;24.76;68.42
75913;BME280;64592;52.168;21.040;2023-08-06T17:16:37;98445.94;;;24.67;68.71
75913;BME280;64592;52.168;21.040;2023-08-06T17:21:38;98480.41;;;24.53;68.85
75913;BME280;64592;52.168;21.040;2023-08-06T17:26:40;98488.94;;;24.35;70.03
75913;BME280;64592;52.168;21.040;2023-08-06T17:31:43;98494.38;;;24.02;71.17
75913;BME280;64592;52.168;21.040;2023-08-06T17:36:46;98495.06;;;23.64;72.70
75913;BME280;64592;52.168;21.040;2023-08-06T17:41:48;98511.63;;;23.29;74.58
75913;BME280;64592;52.168;21.040;2023-08-06T17:46:51;98516.97;;;22.95;75.62
75913;BME280;64592;52.168;21.040;2023-08-06T17:51:52;98507.50;;;22.68;77.27
75913;BME280;64592;52.168;21.040;2023-08-06T17:56:54;98513.84;;;22.45;78.07
75913;BME280;64592;52.168;21.040;2023-08-06T18:01:57;98537.56;;;22.28;79.13
75913;BME280;64592;52.168;21.040;2023-08-06T18:06:59;98539.19;;;22.05;79.67
75913;BME280;64592;52.168;21.040;2023-08-06T18:12:00;98544.75;;;21.99;79.41
75913;BME280;64592;52.168;21.040;2023-08-06T18:17:03;98551.41;;;21.73;78.49
75913;BME280;64592;52.168;21.040;2023-08-06T18:22:05;98543.75;;;21.63;78.62
75913;BME280;64592;52.168;21.040;2023-08-06T18:27:07;98533.50;;;21.41;78.96
75913;BME280;64592;52.168;21.040;2023-08-06T18:32:10;98530.53;;;21.24;78.28
75913;BME280;64592;52.168;21.040;2023-08-06T18:37:11;98540.47;;;21.00;78.40
75913;BME280;64592;52.168;21.040;2023-08-06T18:42:13;98566.00;;;20.76;79.36
75913;BME280;64592;52.168;21.040;2023-08-06T18:47:16;98592.50;;;20.57;78.74
75913;BME280;64592;52.168;21.040;2023-08-06T18:52:18;98581.94;;;20.36;77.51
75913;BME280;64592;52.168;21.040;2023-08-06T18:57:20;98584.75;;;20.16;77.35
75913;BME280;64592;52.168;21.040;2023-08-06T19:02:24;98582.38;;;19.95;77.64
75913;BME280;64592;52.168;21.040;2023-08-06T19:07:26;98583.72;;;19.86;78.14
75913;BME280;64592;52.168;21.040;2023-08-06T19:12:27;98596.00;;;19.70;78.97
75913;BME280;64592;52.168;21.040;2023-08-06T19:17:30;98584.03;;;19.58;79.15
75913;BME280;64592;52.168;21.040;2023-08-06T19:22:32;98583.22;;;19.51;79.42
75913;BME280;64592;52.168;21.040;2023-08-06T19:27:34;98590.81;;;19.49;79.67
75913;BME280;64592;52.168;21.040;2023-08-06T19:32:37;98591.22;;;19.46;80.00
75913;BME280;64592;52.168;21.040;2023-08-06T19:37:39;98571.91;;;19.47;80.44
75913;BME280;64592;52.168;21.040;2023-08-06T19:42:40;98579.00;;;19.42;80.20
75913;BME280;64592;52.168;21.040;2023-08-06T19:47:43;98582.38;;;19.44;79.97
75913;BME280;64592;52.168;21.040;2023-08-06T19:52:45;98587.03;;;19.36;79.63
75913;BME280;64592;52.168;21.040;2023-08-06T19:57:47;98571.50;;;19.30;79.63
75913;BME280;64592;52.168;21.040;2023-08-06T20:02:50;98555.97;;;19.24;79.11
75913;BME280;64592;52.168;21.040;2023-08-06T20:07:51;98579.75;;;19.17;79.76
75913;BME280;64592;52.168;21.040;2023-08-06T20:12:53;98569.44;;;19.13;80.35
75913;BME280;64592;52.168;21.040;2023-08-06T20:17:56;98564.84;;;19.07;79.72
75913;BME280;64592;52.168;21.040;2023-08-06T20:22:58;98558.97;;;19.03;79.79
75913;BME280;64592;52.168;21.040;2023-08-06T20:28:00;98568.63;;;18.99;79.51
75913;BME280;64592;52.168;21.040;2023-08-06T20:33:03;98569.09;;;18.96;79.99
75913;BME280;64592;52.168;21.040;2023-08-06T20:38:04;98569.09;;;18.89;80.36
75913;BME280;64592;52.168;21.040;2023-08-06T20:43:06;98568.88;;;18.91;80.26
75913;BME280;64592;52.168;21.040;2023-08-06T20:48:09;98577.94;;;18.78;80.62
75913;BME280;64592;52.168;21.040;2023-08-06T20:53:11;98549.78;;;18.71;81.14
75913;BME280;64592;52.168;21.040;2023-08-06T20:58:12;98571.19;;;18.68;81.63
75913;BME280;64592;52.168;21.040;2023-08-06T21:03:15;98577.09;;;18.65;81.39
75913;BME280;64592;52.168;21.040;2023-08-06T21:08:17;98585.09;;;18.59;81.61
75913;BME280;64592;52.168;21.040;2023-08-06T21:13:19;98585.69;;;18.55;82.35
75913;BME280;64592;52.168;21.040;2023-08-06T21:18:22;98585.03;;;18.53;82.96
75913;BME280;64592;52.168;21.040;2023-08-06T21:23:24;98589.25;;;18.49;82.62
75913;BME280;64592;52.168;21.040;2023-08-06T21:28:26;98600.38;;;18.47;82.45
75913;BME280;64592;52.168;21.040;2023-08-06T21:33:33;98609.41;;;18.41;82.45
75913;BME280;64592;52.168;21.040;2023-08-06T21:38:36;98617.78;;;18.40;83.04
75913;BME280;64592;52.168;21.040;2023-08-06T21:43:40;98629.13;;;18.30;83.62
75913;BME280;64592;52.168;21.040;2023-08-06T21:48:44;98630.56;;;18.26;82.38
75913;BME280;64592;52.168;21.040;2023-08-06T21:53:47;98621.13;;;18.22;83.13
75913;BME280;64592;52.168;21.040;2023-08-06T21:58:49;98621.34;;;18.14;82.87
75913;BME280;64592;52.168;21.040;2023-08-06T22:03:53;98624.00;;;18.01;83.80
75913;BME280;64592;52.168;21.040;2023-08-06T22:08:56;98624.84;;;17.95;84.56
75913;BME280;64592;52.168;21.040;2023-08-06T22:13:57;98622.94;;;17.89;84.75
75913;BME280;64592;52.168;21.040;2023-08-06T22:19:01;98641.38;;;17.87;85.39
75913;BME280;64592;52.168;21.040;2023-08-06T22:24:03;98645.97;;;17.79;85.59
75913;BME280;64592;52.168;21.040;2023-08-06T22:29:04;98641.97;;;17.75;86.41
75913;BME280;64592;52.168;21.040;2023-08-06T22:34:07;98656.22;;;17.71;86.31
75913;BME280;64592;52.168;21.040;2023-08-06T22:39:09;98663.72;;;17.62;85.99
75913;BME280;64592;52.168;21.040;2023-08-06T22:44:11;98669.19;;;17.62;84.36
75913;BME280;64592;52.168;21.040;2023-08-06T22:49:14;98683.66;;;17.63;83.99
75913;BME280;64592;52.168;21.040;2023-08-06T22:54:15;98683.84;;;17.61;83.79
75913;BME280;64592;52.168;21.040;2023-08-06T22:59:17;98701.72;;;17.42;82.90
75913;BME280;64592;52.168;21.040;2023-08-06T23:04:20;98710.03;;;17.34;83.30
75913;BME280;64592;52.168;21.040;2023-08-06T23:09:22;98707.31;;;17.34;83.39
75913;BME280;64592;52.168;21.040;2023-08-06T23:14:23;98713.28;;;17.17;83.86
75913;BME280;64592;52.168;21.040;2023-08-06T23:19:26;98722.50;;;17.16;84.92
75913;BME280;64592;52.168;21.040;2023-08-06T23:24:28;98720.06;;;16.99;86.18
75913;BME280;64592;52.168;21.040;2023-08-06T23:29:30;98709.81;;;17.01;86.45
75913;BME280;64592;52.168;21.040;2023-08-06T23:34:33;98721.88;;;16.92;87.56
75913;BME280;64592;52.168;21.040;2023-08-06T23:39:34;98717.97;;;16.74;88.78
75913;BME280;64592;52.168;21.040;2023-08-06T23:44:36;98711.88;;;16.72;89.53
75913;BME280;64592;52.168;21.040;2023-08-06T23:49:40;98690.69;;;16.67;90.62
75913;BME280;64592;52.168;21.040;2023-08-06T23:54:42;98687.59;;;16.55;90.81
75913;BME280;64592;52.168;21.040;2023-08-06T23:59:44;98704.41;;;16.59;90.15
